Youngstown, Illinois
Current Conditions -  °F | °C
As of 12:15 PM on Sunday 25 Jan 2015 (Local Time) from KMQB Reporting Station
Light Snow Light Snow  
Wind Chill: 21°   Ceiling: 900
Heat Index: 33°   Visibility: 2.5mi
Dew Point: 32°   Wind: 21mph
Humidity: 98%   Direction: 30°NNE
Pressure: 29.74"   Gusts: 28mph
Location:  40.7092°N, 90.6155°W
Report Text: KMQB 251815Z AUTO 03018G24KT 2 1/2SM -SN OVC009 01/00 A2974 RMK AO2 T00050002
Loading
Personal Weather Stations






























Interactive Weather Map New forecast layout! Learn more

10-Day Weather Forecast

Advertisements
Track Severe Weather on mobile